sensor_id;sensor_type;location;lat;lon;timestamp;P1;durP1;ratioP1;P2;durP2;ratioP2
26588;SDS011;14235;48.532;8.722;2023-05-17T00:01:23;2.90;;;2.60;;
26588;SDS011;14235;48.532;8.722;2023-05-17T00:03:48;2.53;;;2.13;;
26588;SDS011;14235;48.532;8.722;2023-05-17T00:06:14;2.72;;;2.35;;
26588;SDS011;14235;48.532;8.722;2023-05-17T00:08:40;2.75;;;2.42;;
26588;SDS011;14235;48.532;8.722;2023-05-17T00:11:05;4.75;;;2.38;;
26588;SDS011;14235;48.532;8.722;2023-05-17T00:13:31;2.08;;;1.80;;
26588;SDS011;14235;48.532;8.722;2023-05-17T00:15:56;3.03;;;2.10;;
26588;SDS011;14235;48.532;8.722;2023-05-17T00:18:22;2.17;;;1.98;;
26588;SDS011;14235;48.532;8.722;2023-05-17T00:20:47;3.25;;;2.00;;
26588;SDS011;14235;48.532;8.722;2023-05-17T00:23:13;2.13;;;1.95;;
26588;SDS011;14235;48.532;8.722;2023-05-17T00:25:39;3.88;;;1.85;;
26588;SDS011;14235;48.532;8.722;2023-05-17T00:28:04;2.22;;;1.67;;
26588;SDS011;14235;48.532;8.722;2023-05-17T00:30:30;3.10;;;1.70;;
26588;SDS011;14235;48.532;8.722;2023-05-17T00:32:55;3.42;;;1.60;;
26588;SDS011;14235;48.532;8.722;2023-05-17T00:35:21;3.38;;;1.80;;
26588;SDS011;14235;48.532;8.722;2023-05-17T00:37:47;4.82;;;1.80;;
26588;SDS011;14235;48.532;8.722;2023-05-17T00:40:13;3.47;;;1.80;;
26588;SDS011;14235;48.532;8.722;2023-05-17T00:42:42;3.42;;;2.00;;
26588;SDS011;14235;48.532;8.722;2023-05-17T00:45:07;2.90;;;1.88;;
26588;SDS011;14235;48.532;8.722;2023-05-17T00:47:33;2.35;;;1.80;;
26588;SDS011;14235;48.532;8.722;2023-05-17T00:49:59;1.75;;;1.65;;
26588;SDS011;14235;48.532;8.722;2023-05-17T00:52:25;3.33;;;2.13;;
26588;SDS011;14235;48.532;8.722;2023-05-17T00:54:51;7.28;;;2.03;;
26588;SDS011;14235;48.532;8.722;2023-05-17T00:57:16;1.90;;;1.60;;
26588;SDS011;14235;48.532;8.722;2023-05-17T00:59:43;3.45;;;1.60;;
26588;SDS011;14235;48.532;8.722;2023-05-17T01:02:09;3.60;;;1.77;;
26588;SDS011;14235;48.532;8.722;2023-05-17T01:04:36;1.63;;;1.52;;
26588;SDS011;14235;48.532;8.722;2023-05-17T01:07:02;2.35;;;1.70;;
26588;SDS011;14235;48.532;8.722;2023-05-17T01:09:28;1.73;;;1.58;;
26588;SDS011;14235;48.532;8.722;2023-05-17T01:17:03;3.15;;;1.63;;
26588;SDS011;14235;48.532;8.722;2023-05-17T01:25:03;2.38;;;1.55;;
26588;SDS011;14235;48.532;8.722;2023-05-17T01:27:37;1.73;;;1.27;;
26588;SDS011;14235;48.532;8.722;2023-05-17T01:30:05;1.73;;;1.38;;
26588;SDS011;14235;48.532;8.722;2023-05-17T01:32:33;2.67;;;1.70;;
26588;SDS011;14235;48.532;8.722;2023-05-17T01:34:59;1.30;;;1.20;;
26588;SDS011;14235;48.532;8.722;2023-05-17T01:37:25;1.90;;;1.27;;
26588;SDS011;14235;48.532;8.722;2023-05-17T01:39:50;3.10;;;1.48;;
26588;SDS011;14235;48.532;8.722;2023-05-17T01:42:24;1.30;;;1.20;;
26588;SDS011;14235;48.532;8.722;2023-05-17T01:44:59;3.90;;;1.50;;
26588;SDS011;14235;48.532;8.722;2023-05-17T01:50:22;2.55;;;1.10;;
26588;SDS011;14235;48.532;8.722;2023-05-17T01:52:54;2.78;;;1.40;;
26588;SDS011;14235;48.532;8.722;2023-05-17T01:55:36;1.70;;;1.30;;
26588;SDS011;14235;48.532;8.722;2023-05-17T01:58:15;3.85;;;1.30;;
26588;SDS011;14235;48.532;8.722;2023-05-17T02:00:46;2.78;;;1.17;;
26588;SDS011;14235;48.532;8.722;2023-05-17T02:03:19;5.07;;;1.42;;
26588;SDS011;14235;48.532;8.722;2023-05-17T02:05:44;3.70;;;1.67;;
26588;SDS011;14235;48.532;8.722;2023-05-17T02:08:10;3.38;;;1.20;;
26588;SDS011;14235;48.532;8.722;2023-05-17T02:10:36;3.35;;;1.50;;
26588;SDS011;14235;48.532;8.722;2023-05-17T02:13:02;1.55;;;1.38;;
26588;SDS011;14235;48.532;8.722;2023-05-17T02:15:28;2.50;;;1.30;;
26588;SDS011;14235;48.532;8.722;2023-05-17T02:17:54;1.00;;;1.00;;
26588;SDS011;14235;48.532;8.722;2023-05-17T02:20:19;1.20;;;1.20;;
26588;SDS011;14235;48.532;8.722;2023-05-17T02:22:45;2.08;;;1.45;;
26588;SDS011;14235;48.532;8.722;2023-05-17T02:25:11;2.83;;;1.20;;
26588;SDS011;14235;48.532;8.722;2023-05-17T02:27:36;1.15;;;1.00;;
26588;SDS011;14235;48.532;8.722;2023-05-17T02:30:02;1.38;;;1.17;;
26588;SDS011;14235;48.532;8.722;2023-05-17T02:32:28;1.55;;;1.30;;
26588;SDS011;14235;48.532;8.722;2023-05-17T02:34:54;2.25;;;1.45;;
26588;SDS011;14235;48.532;8.722;2023-05-17T02:37:20;1.95;;;1.10;;
26588;SDS011;14235;48.532;8.722;2023-05-17T02:39:46;1.20;;;1.15;;
26588;SDS011;14235;48.532;8.722;2023-05-17T02:42:11;1.55;;;1.35;;
26588;SDS011;14235;48.532;8.722;2023-05-17T02:44:37;2.08;;;1.30;;
26588;SDS011;14235;48.532;8.722;2023-05-17T02:47:02;2.03;;;1.40;;
26588;SDS011;14235;48.532;8.722;2023-05-17T02:49:28;3.25;;;1.83;;
26588;SDS011;14235;48.532;8.722;2023-05-17T02:51:54;2.95;;;1.92;;
26588;SDS011;14235;48.532;8.722;2023-05-17T02:54:20;5.53;;;2.22;;
26588;SDS011;14235;48.532;8.722;2023-05-17T02:56:48;5.30;;;2.50;;
26588;SDS011;14235;48.532;8.722;2023-05-17T02:59:14;2.70;;;1.80;;
26588;SDS011;14235;48.532;8.722;2023-05-17T03:01:39;2.58;;;1.77;;
26588;SDS011;14235;48.532;8.722;2023-05-17T03:04:06;2.63;;;1.77;;
26588;SDS011;14235;48.532;8.722;2023-05-17T03:06:31;2.03;;;1.48;;
26588;SDS011;14235;48.532;8.722;2023-05-17T03:08:58;3.42;;;1.73;;
26588;SDS011;14235;48.532;8.722;2023-05-17T03:11:24;3.08;;;1.85;;
26588;SDS011;14235;48.532;8.722;2023-05-17T03:13:50;4.85;;;1.83;;
26588;SDS011;14235;48.532;8.722;2023-05-17T03:16:16;3.03;;;2.20;;
26588;SDS011;14235;48.532;8.722;2023-05-17T03:18:42;5.35;;;2.50;;
26588;SDS011;14235;48.532;8.722;2023-05-17T03:21:07;3.33;;;2.35;;
26588;SDS011;14235;48.532;8.722;2023-05-17T03:23:33;3.10;;;2.20;;
26588;SDS011;14235;48.532;8.722;2023-05-17T03:25:59;4.68;;;2.40;;
26588;SDS011;14235;48.532;8.722;2023-05-17T03:28:24;3.83;;;2.17;;
26588;SDS011;14235;48.532;8.722;2023-05-17T03:30:50;2.22;;;2.03;;
26588;SDS011;14235;48.532;8.722;2023-05-17T03:33:17;4.50;;;2.13;;
26588;SDS011;14235;48.532;8.722;2023-05-17T03:35:43;6.82;;;2.13;;
26588;SDS011;14235;48.532;8.722;2023-05-17T03:38:10;4.65;;;2.53;;
26588;SDS011;14235;48.532;8.722;2023-05-17T03:40:36;5.43;;;2.20;;
26588;SDS011;14235;48.532;8.722;2023-05-17T03:43:02;5.32;;;2.10;;
26588;SDS011;14235;48.532;8.722;2023-05-17T03:45:27;2.47;;;2.28;;
26588;SDS011;14235;48.532;8.722;2023-05-17T03:47:53;2.22;;;2.13;;
26588;SDS011;14235;48.532;8.722;2023-05-17T03:50:18;2.00;;;1.90;;
26588;SDS011;14235;48.532;8.722;2023-05-17T03:52:44;2.30;;;2.10;;
26588;SDS011;14235;48.532;8.722;2023-05-17T03:55:10;3.70;;;2.10;;
26588;SDS011;14235;48.532;8.722;2023-05-17T03:57:36;2.72;;;2.00;;
26588;SDS011;14235;48.532;8.722;2023-05-17T04:00:01;2.00;;;1.90;;
26588;SDS011;14235;48.532;8.722;2023-05-17T04:02:30;2.58;;;2.25;;
26588;SDS011;14235;48.532;8.722;2023-05-17T04:04:56;1.73;;;1.70;;
26588;SDS011;14235;48.532;8.722;2023-05-17T04:07:21;2.08;;;1.95;;
26588;SDS011;14235;48.532;8.722;2023-05-17T04:09:47;2.45;;;2.00;;
26588;SDS011;14235;48.532;8.722;2023-05-17T04:12:13;1.95;;;1.85;;
26588;SDS011;14235;48.532;8.722;2023-05-17T04:14:39;2.15;;;1.95;;
26588;SDS011;14235;48.532;8.722;2023-05-17T04:17:05;1.90;;;1.80;;
26588;SDS011;14235;48.532;8.722;2023-05-17T04:19:30;2.95;;;1.98;;
26588;SDS011;14235;48.532;8.722;2023-05-17T04:21:56;1.83;;;1.67;;
26588;SDS011;14235;48.532;8.722;2023-05-17T04:24:21;1.92;;;1.70;;
26588;SDS011;14235;48.532;8.722;2023-05-17T04:26:47;2.13;;;1.95;;
26588;SDS011;14235;48.532;8.722;2023-05-17T04:29:13;4.10;;;2.00;;
26588;SDS011;14235;48.532;8.722;2023-05-17T04:31:38;2.63;;;2.42;;
26588;SDS011;14235;48.532;8.722;2023-05-17T04:34:04;2.60;;;2.40;;
26588;SDS011;14235;48.532;8.722;2023-05-17T04:36:29;3.08;;;2.47;;
26588;SDS011;14235;48.532;8.722;2023-05-17T04:38:55;3.50;;;2.60;;
26588;SDS011;14235;48.532;8.722;2023-05-17T04:41:20;3.53;;;2.25;;
26588;SDS011;14235;48.532;8.722;2023-05-17T04:43:46;3.53;;;2.28;;
26588;SDS011;14235;48.532;8.722;2023-05-17T04:46:11;2.47;;;2.00;;
26588;SDS011;14235;48.532;8.722;2023-05-17T04:48:37;2.75;;;1.85;;
26588;SDS011;14235;48.532;8.722;2023-05-17T04:51:03;1.65;;;1.55;;
26588;SDS011;14235;48.532;8.722;2023-05-17T04:53:29;1.50;;;1.40;;
26588;SDS011;14235;48.532;8.722;2023-05-17T04:55:55;6.47;;;2.03;;
26588;SDS011;14235;48.532;8.722;2023-05-17T04:58:21;2.05;;;1.85;;
26588;SDS011;14235;48.532;8.722;2023-05-17T05:00:48;2.67;;;2.47;;
26588;SDS011;14235;48.532;8.722;2023-05-17T05:03:14;3.50;;;2.25;;
26588;SDS011;14235;48.532;8.722;2023-05-17T05:05:40;3.28;;;2.45;;
26588;SDS011;14235;48.532;8.722;2023-05-17T05:08:05;2.85;;;2.53;;
26588;SDS011;14235;48.532;8.722;2023-05-17T05:10:32;3.53;;;2.75;;
26588;SDS011;14235;48.532;8.722;2023-05-17T05:12:58;3.20;;;2.50;;
26588;SDS011;14235;48.532;8.722;2023-05-17T05:15:23;5.05;;;2.55;;
26588;SDS011;14235;48.532;8.722;2023-05-17T05:17:49;2.45;;;2.33;;
26588;SDS011;14235;48.532;8.722;2023-05-17T05:20:15;2.40;;;2.20;;
26588;SDS011;14235;48.532;8.722;2023-05-17T05:22:40;3.88;;;2.50;;
26588;SDS011;14235;48.532;8.722;2023-05-17T05:25:06;3.80;;;2.28;;
26588;SDS011;14235;48.532;8.722;2023-05-17T05:27:32;5.07;;;2.13;;
26588;SDS011;14235;48.532;8.722;2023-05-17T05:29:59;2.10;;;1.88;;
26588;SDS011;14235;48.532;8.722;2023-05-17T05:32:25;2.75;;;2.03;;
26588;SDS011;14235;48.532;8.722;2023-05-17T05:34:51;2.20;;;1.83;;
26588;SDS011;14235;48.532;8.722;2023-05-17T05:37:16;2.17;;;1.80;;
26588;SDS011;14235;48.532;8.722;2023-05-17T05:39:43;3.08;;;2.10;;
26588;SDS011;14235;48.532;8.722;2023-05-17T05:42:09;2.03;;;1.80;;
26588;SDS011;14235;48.532;8.722;2023-05-17T05:44:35;2.60;;;2.10;;
26588;SDS011;14235;48.532;8.722;2023-05-17T05:47:01;2.92;;;2.15;;
26588;SDS011;14235;48.532;8.722;2023-05-17T05:49:26;2.42;;;1.80;;
26588;SDS011;14235;48.532;8.722;2023-05-17T05:51:52;1.63;;;1.52;;
26588;SDS011;14235;48.532;8.722;2023-05-17T05:54:18;3.42;;;1.75;;
26588;SDS011;14235;48.532;8.722;2023-05-17T05:56:43;1.80;;;1.70;;
26588;SDS011;14235;48.532;8.722;2023-05-17T05:59:09;2.33;;;2.00;;
26588;SDS011;14235;48.532;8.722;2023-05-17T06:01:35;2.20;;;2.00;;
26588;SDS011;14235;48.532;8.722;2023-05-17T06:04:01;3.80;;;1.95;;
26588;SDS011;14235;48.532;8.722;2023-05-17T06:06:27;2.90;;;1.90;;
26588;SDS011;14235;48.532;8.722;2023-05-17T06:08:52;5.15;;;2.17;;
26588;SDS011;14235;48.532;8.722;2023-05-17T06:11:18;2.70;;;2.03;;
26588;SDS011;14235;48.532;8.722;2023-05-17T06:13:44;2.55;;;1.90;;
26588;SDS011;14235;48.532;8.722;2023-05-17T06:16:10;1.90;;;1.80;;
26588;SDS011;14235;48.532;8.722;2023-05-17T06:18:36;2.75;;;1.83;;
26588;SDS011;14235;48.532;8.722;2023-05-17T06:21:02;3.28;;;2.17;;
26588;SDS011;14235;48.532;8.722;2023-05-17T06:23:27;4.05;;;1.80;;
26588;SDS011;14235;48.532;8.722;2023-05-17T06:25:53;3.33;;;2.22;;
26588;SDS011;14235;48.532;8.722;2023-05-17T06:28:19;3.95;;;2.08;;
26588;SDS011;14235;48.532;8.722;2023-05-17T06:30:45;4.45;;;2.00;;
26588;SDS011;14235;48.532;8.722;2023-05-17T06:33:10;2.17;;;1.98;;
26588;SDS011;14235;48.532;8.722;2023-05-17T06:35:36;2.83;;;2.38;;
26588;SDS011;14235;48.532;8.722;2023-05-17T06:38:02;3.28;;;2.40;;
26588;SDS011;14235;48.532;8.722;2023-05-17T06:40:28;5.43;;;2.35;;
26588;SDS011;14235;48.532;8.722;2023-05-17T06:42:54;5.80;;;2.97;;
26588;SDS011;14235;48.532;8.722;2023-05-17T06:45:19;5.03;;;2.70;;
26588;SDS011;14235;48.532;8.722;2023-05-17T06:47:45;4.28;;;2.45;;
26588;SDS011;14235;48.532;8.722;2023-05-17T06:50:11;4.35;;;2.67;;
26588;SDS011;14235;48.532;8.722;2023-05-17T06:52:37;4.28;;;2.78;;
26588;SDS011;14235;48.532;8.722;2023-05-17T06:55:03;2.65;;;2.35;;
26588;SDS011;14235;48.532;8.722;2023-05-17T06:57:29;4.25;;;2.60;;
26588;SDS011;14235;48.532;8.722;2023-05-17T06:59:54;4.22;;;2.38;;
26588;SDS011;14235;48.532;8.722;2023-05-17T07:02:20;4.18;;;2.95;;
26588;SDS011;14235;48.532;8.722;2023-05-17T07:04:45;4.65;;;2.80;;
26588;SDS011;14235;48.532;8.722;2023-05-17T07:07:11;4.43;;;2.60;;
26588;SDS011;14235;48.532;8.722;2023-05-17T07:09:36;4.45;;;2.70;;
26588;SDS011;14235;48.532;8.722;2023-05-17T07:12:03;6.20;;;3.00;;
26588;SDS011;14235;48.532;8.722;2023-05-17T07:14:29;7.68;;;2.70;;
26588;SDS011;14235;48.532;8.722;2023-05-17T07:16:55;6.07;;;2.72;;
26588;SDS011;14235;48.532;8.722;2023-05-17T07:19:21;4.65;;;2.65;;
26588;SDS011;14235;48.532;8.722;2023-05-17T07:21:46;6.70;;;3.05;;
26588;SDS011;14235;48.532;8.722;2023-05-17T07:24:12;7.43;;;3.28;;
26588;SDS011;14235;48.532;8.722;2023-05-17T07:26:38;5.88;;;2.97;;
26588;SDS011;14235;48.532;8.722;2023-05-17T07:29:03;7.32;;;3.38;;
26588;SDS011;14235;48.532;8.722;2023-05-17T07:31:29;6.90;;;2.80;;
26588;SDS011;14235;48.532;8.722;2023-05-17T07:33:54;4.22;;;2.95;;
26588;SDS011;14235;48.532;8.722;2023-05-17T07:36:20;4.80;;;2.97;;
26588;SDS011;14235;48.532;8.722;2023-05-17T07:38:46;5.35;;;3.25;;
26588;SDS011;14235;48.532;8.722;2023-05-17T07:41:11;7.55;;;3.65;;
26588;SDS011;14235;48.532;8.722;2023-05-17T07:43:40;5.40;;;3.25;;
26588;SDS011;14235;48.532;8.722;2023-05-17T07:46:06;5.90;;;3.15;;
26588;SDS011;14235;48.532;8.722;2023-05-17T07:48:35;5.72;;;2.92;;
26588;SDS011;14235;48.532;8.722;2023-05-17T07:51:00;7.07;;;3.40;;
26588;SDS011;14235;48.532;8.722;2023-05-17T07:53:26;5.90;;;3.72;;
26588;SDS011;14235;48.532;8.722;2023-05-17T07:55:51;5.93;;;3.70;;
26588;SDS011;14235;48.532;8.722;2023-05-17T07:58:18;5.85;;;3.20;;
26588;SDS011;14235;48.532;8.722;2023-05-17T08:00:43;6.50;;;3.28;;
26588;SDS011;14235;48.532;8.722;2023-05-17T08:03:09;8.30;;;3.35;;
26588;SDS011;14235;48.532;8.722;2023-05-17T08:05:34;3.75;;;3.13;;
26588;SDS011;14235;48.532;8.722;2023-05-17T08:08:00;4.88;;;3.20;;
26588;SDS011;14235;48.532;8.722;2023-05-17T08:10:26;4.57;;;3.45;;
26588;SDS011;14235;48.532;8.722;2023-05-17T08:12:52;4.97;;;3.35;;
26588;SDS011;14235;48.532;8.722;2023-05-17T08:15:18;5.82;;;3.15;;
26588;SDS011;14235;48.532;8.722;2023-05-17T08:17:43;3.67;;;2.90;;
26588;SDS011;14235;48.532;8.722;2023-05-17T08:20:09;4.75;;;3.33;;
26588;SDS011;14235;48.532;8.722;2023-05-17T08:22:35;4.90;;;3.25;;
26588;SDS011;14235;48.532;8.722;2023-05-17T08:25:01;5.63;;;2.88;;
26588;SDS011;14235;48.532;8.722;2023-05-17T08:27:27;4.50;;;2.92;;
26588;SDS011;14235;48.532;8.722;2023-05-17T08:29:55;7.32;;;3.22;;
26588;SDS011;14235;48.532;8.722;2023-05-17T08:32:21;5.68;;;3.13;;
26588;SDS011;14235;48.532;8.722;2023-05-17T08:34:47;3.97;;;2.97;;
26588;SDS011;14235;48.532;8.722;2023-05-17T08:37:13;5.65;;;2.85;;
26588;SDS011;14235;48.532;8.722;2023-05-17T08:39:39;4.25;;;3.00;;
26588;SDS011;14235;48.532;8.722;2023-05-17T08:42:08;5.45;;;3.90;;
26588;SDS011;14235;48.532;8.722;2023-05-17T08:44:33;6.35;;;3.67;;
26588;SDS011;14235;48.532;8.722;2023-05-17T08:47:01;6.20;;;3.30;;
26588;SDS011;14235;48.532;8.722;2023-05-17T08:49:28;3.95;;;3.03;;
26588;SDS011;14235;48.532;8.722;2023-05-17T08:51:58;6.22;;;3.05;;
26588;SDS011;14235;48.532;8.722;2023-05-17T08:54:25;5.43;;;3.17;;
26588;SDS011;14235;48.532;8.722;2023-05-17T08:56:52;5.60;;;3.35;;
26588;SDS011;14235;48.532;8.722;2023-05-17T08:59:21;4.25;;;3.00;;
26588;SDS011;14235;48.532;8.722;2023-05-17T09:01:47;3.92;;;2.70;;
26588;SDS011;14235;48.532;8.722;2023-05-17T09:04:16;4.25;;;2.92;;
26588;SDS011;14235;48.532;8.722;2023-05-17T09:06:42;5.72;;;2.97;;
26588;SDS011;14235;48.532;8.722;2023-05-17T09:09:08;3.33;;;2.97;;
26588;SDS011;14235;48.532;8.722;2023-05-17T09:11:34;5.93;;;3.13;;
26588;SDS011;14235;48.532;8.722;2023-05-17T09:14:01;4.63;;;2.67;;
26588;SDS011;14235;48.532;8.722;2023-05-17T09:16:28;2.90;;;2.55;;
26588;SDS011;14235;48.532;8.722;2023-05-17T09:18:55;5.82;;;2.95;;
26588;SDS011;14235;48.532;8.722;2023-05-17T09:21:21;5.43;;;2.80;;
26588;SDS011;14235;48.532;8.722;2023-05-17T09:23:49;4.57;;;2.83;;
26588;SDS011;14235;48.532;8.722;2023-05-17T09:26:15;4.75;;;3.13;;
26588;SDS011;14235;48.532;8.722;2023-05-17T09:28:42;3.55;;;2.78;;
26588;SDS011;14235;48.532;8.722;2023-05-17T09:31:08;6.38;;;2.50;;
26588;SDS011;14235;48.532;8.722;2023-05-17T09:36:21;5.82;;;3.50;;
26588;SDS011;14235;48.532;8.722;2023-05-17T09:38:51;4.38;;;2.80;;
26588;SDS011;14235;48.532;8.722;2023-05-17T09:41:24;4.00;;;2.45;;
26588;SDS011;14235;48.532;8.722;2023-05-17T09:43:50;2.70;;;2.50;;
26588;SDS011;14235;48.532;8.722;2023-05-17T09:46:18;3.88;;;2.70;;
26588;SDS011;14235;48.532;8.722;2023-05-17T09:48:44;6.65;;;2.95;;
26588;SDS011;14235;48.532;8.722;2023-05-17T09:51:10;4.80;;;3.00;;
26588;SDS011;14235;48.532;8.722;2023-05-17T09:53:36;4.35;;;2.85;;
26588;SDS011;14235;48.532;8.722;2023-05-17T09:56:06;3.58;;;2.90;;
26588;SDS011;14235;48.532;8.722;2023-05-17T09:58:32;4.50;;;2.90;;
26588;SDS011;14235;48.532;8.722;2023-05-17T10:01:01;3.67;;;2.97;;
26588;SDS011;14235;48.532;8.722;2023-05-17T10:03:39;4.85;;;3.08;;
26588;SDS011;14235;48.532;8.722;2023-05-17T10:06:06;3.70;;;2.67;;
26588;SDS011;14235;48.532;8.722;2023-05-17T10:08:33;3.40;;;2.88;;
26588;SDS011;14235;48.532;8.722;2023-05-17T10:11:04;4.22;;;3.10;;
26588;SDS011;14235;48.532;8.722;2023-05-17T10:13:36;4.20;;;2.47;;
26588;SDS011;14235;48.532;8.722;2023-05-17T10:16:13;4.82;;;2.88;;
26588;SDS011;14235;48.532;8.722;2023-05-17T10:18:39;3.33;;;2.97;;
26588;SDS011;14235;48.532;8.722;2023-05-17T10:21:06;3.58;;;2.65;;
26588;SDS011;14235;48.532;8.722;2023-05-17T10:23:32;4.25;;;2.67;;
26588;SDS011;14235;48.532;8.722;2023-05-17T10:26:00;6.03;;;2.88;;
26588;SDS011;14235;48.532;8.722;2023-05-17T10:28:26;6.35;;;3.45;;
26588;SDS011;14235;48.532;8.722;2023-05-17T10:30:54;4.47;;;2.90;;
26588;SDS011;14235;48.532;8.722;2023-05-17T10:33:20;5.00;;;2.97;;
26588;SDS011;14235;48.532;8.722;2023-05-17T10:35:46;3.20;;;2.90;;
26588;SDS011;14235;48.532;8.722;2023-05-17T10:38:16;3.67;;;2.80;;
26588;SDS011;14235;48.532;8.722;2023-05-17T10:40:42;3.72;;;2.65;;
26588;SDS011;14235;48.532;8.722;2023-05-17T10:43:10;6.88;;;2.83;;
26588;SDS011;14235;48.532;8.722;2023-05-17T10:45:37;7.63;;;2.65;;
26588;SDS011;14235;48.532;8.722;2023-05-17T10:48:06;4.13;;;2.90;;
26588;SDS011;14235;48.532;8.722;2023-05-17T10:50:32;4.18;;;3.13;;
26588;SDS011;14235;48.532;8.722;2023-05-17T10:53:01;4.07;;;2.33;;
26588;SDS011;14235;48.532;8.722;2023-05-17T11:00:40;5.57;;;3.45;;
26588;SDS011;14235;48.532;8.722;2023-05-17T11:03:15;4.40;;;3.30;;
26588;SDS011;14235;48.532;8.722;2023-05-17T11:08:35;16.17;;;8.70;;
26588;SDS011;14235;48.532;8.722;2023-05-17T11:11:08;6.68;;;3.63;;
26588;SDS011;14235;48.532;8.722;2023-05-17T11:13:54;3.60;;;2.80;;
26588;SDS011;14235;48.532;8.722;2023-05-17T11:16:21;4.13;;;3.00;;
26588;SDS011;14235;48.532;8.722;2023-05-17T11:18:53;5.97;;;3.97;;
26588;SDS011;14235;48.532;8.722;2023-05-17T11:21:20;6.63;;;3.40;;
26588;SDS011;14235;48.532;8.722;2023-05-17T11:23:47;6.65;;;4.22;;
26588;SDS011;14235;48.532;8.722;2023-05-17T11:26:20;5.78;;;3.50;;
26588;SDS011;14235;48.532;8.722;2023-05-17T11:29:07;5.00;;;2.85;;
26588;SDS011;14235;48.532;8.722;2023-05-17T11:31:37;6.75;;;3.08;;
26588;SDS011;14235;48.532;8.722;2023-05-17T11:34:08;5.75;;;3.60;;
26588;SDS011;14235;48.532;8.722;2023-05-17T11:36:47;5.45;;;3.40;;
26588;SDS011;14235;48.532;8.722;2023-05-17T11:39:21;5.90;;;3.15;;
26588;SDS011;14235;48.532;8.722;2023-05-17T11:41:48;6.22;;;3.55;;
26588;SDS011;14235;48.532;8.722;2023-05-17T11:44:15;4.68;;;3.28;;
26588;SDS011;14235;48.532;8.722;2023-05-17T11:46:47;5.30;;;3.38;;
26588;SDS011;14235;48.532;8.722;2023-05-17T11:49:14;5.28;;;3.38;;
26588;SDS011;14235;48.532;8.722;2023-05-17T11:51:40;4.55;;;3.55;;
26588;SDS011;14235;48.532;8.722;2023-05-17T11:54:06;7.43;;;3.85;;
26588;SDS011;14235;48.532;8.722;2023-05-17T11:56:35;5.20;;;3.60;;
26588;SDS011;14235;48.532;8.722;2023-05-17T11:59:02;5.43;;;3.95;;
26588;SDS011;14235;48.532;8.722;2023-05-17T12:01:28;4.45;;;3.08;;
26588;SDS011;14235;48.532;8.722;2023-05-17T12:04:06;4.32;;;3.45;;
26588;SDS011;14235;48.532;8.722;2023-05-17T12:06:32;4.28;;;3.80;;
26588;SDS011;14235;48.532;8.722;2023-05-17T12:08:59;6.20;;;3.22;;
26588;SDS011;14235;48.532;8.722;2023-05-17T12:11:26;7.07;;;3.88;;
26588;SDS011;14235;48.532;8.722;2023-05-17T12:13:52;5.93;;;4.07;;
26588;SDS011;14235;48.532;8.722;2023-05-17T12:16:20;5.00;;;3.25;;
26588;SDS011;14235;48.532;8.722;2023-05-17T12:18:46;5.80;;;3.55;;
26588;SDS011;14235;48.532;8.722;2023-05-17T12:21:13;7.07;;;3.70;;
26588;SDS011;14235;48.532;8.722;2023-05-17T12:23:40;4.13;;;3.67;;
26588;SDS011;14235;48.532;8.722;2023-05-17T12:26:16;5.57;;;3.58;;
26588;SDS011;14235;48.532;8.722;2023-05-17T12:29:03;5.38;;;3.58;;
26588;SDS011;14235;48.532;8.722;2023-05-17T12:31:30;8.02;;;3.65;;
26588;SDS011;14235;48.532;8.722;2023-05-17T12:33:58;6.55;;;3.67;;
26588;SDS011;14235;48.532;8.722;2023-05-17T12:36:26;5.38;;;3.60;;
26588;SDS011;14235;48.532;8.722;2023-05-17T12:38:54;8.70;;;3.85;;
26588;SDS011;14235;48.532;8.722;2023-05-17T12:41:20;3.78;;;3.20;;
26588;SDS011;14235;48.532;8.722;2023-05-17T12:43:48;5.38;;;3.95;;
26588;SDS011;14235;48.532;8.722;2023-05-17T12:46:18;5.43;;;3.75;;
26588;SDS011;14235;48.532;8.722;2023-05-17T12:48:47;4.93;;;3.63;;
26588;SDS011;14235;48.532;8.722;2023-05-17T12:51:18;6.15;;;3.78;;
26588;SDS011;14235;48.532;8.722;2023-05-17T12:53:52;4.32;;;3.70;;
26588;SDS011;14235;48.532;8.722;2023-05-17T12:56:26;6.47;;;4.53;;
26588;SDS011;14235;48.532;8.722;2023-05-17T12:59:02;5.57;;;4.05;;
26588;SDS011;14235;48.532;8.722;2023-05-17T13:01:34;6.07;;;3.55;;
26588;SDS011;14235;48.532;8.722;2023-05-17T13:04:04;3.45;;;3.10;;
26588;SDS011;14235;48.532;8.722;2023-05-17T13:09:26;3.83;;;3.40;;
26588;SDS011;14235;48.532;8.722;2023-05-17T13:11:59;5.40;;;3.33;;
26588;SDS011;14235;48.532;8.722;2023-05-17T13:14:39;4.70;;;3.35;;
26588;SDS011;14235;48.532;8.722;2023-05-17T13:19:58;3.53;;;3.22;;
26588;SDS011;14235;48.532;8.722;2023-05-17T13:22:24;3.97;;;3.08;;
26588;SDS011;14235;48.532;8.722;2023-05-17T13:24:50;6.55;;;3.40;;
26588;SDS011;14235;48.532;8.722;2023-05-17T13:27:22;7.90;;;3.28;;
26588;SDS011;14235;48.532;8.722;2023-05-17T13:29:48;5.20;;;3.22;;
26588;SDS011;14235;48.532;8.722;2023-05-17T13:32:13;5.25;;;3.17;;
26588;SDS011;14235;48.532;8.722;2023-05-17T13:34:39;4.07;;;3.08;;
26588;SDS011;14235;48.532;8.722;2023-05-17T13:37:05;4.15;;;3.13;;
26588;SDS011;14235;48.532;8.722;2023-05-17T13:39:31;3.78;;;3.40;;
26588;SDS011;14235;48.532;8.722;2023-05-17T13:41:57;4.45;;;3.60;;
26588;SDS011;14235;48.532;8.722;2023-05-17T13:44:23;4.57;;;3.42;;
26588;SDS011;14235;48.532;8.722;2023-05-17T13:46:48;4.40;;;3.22;;
26588;SDS011;14235;48.532;8.722;2023-05-17T13:49:14;7.78;;;3.65;;
26588;SDS011;14235;48.532;8.722;2023-05-17T13:51:41;4.72;;;3.55;;
26588;SDS011;14235;48.532;8.722;2023-05-17T13:54:06;5.65;;;3.35;;
26588;SDS011;14235;48.532;8.722;2023-05-17T13:56:32;3.72;;;3.25;;
26588;SDS011;14235;48.532;8.722;2023-05-17T13:58:58;4.80;;;3.63;;
26588;SDS011;14235;48.532;8.722;2023-05-17T14:01:24;3.88;;;3.45;;
26588;SDS011;14235;48.532;8.722;2023-05-17T14:03:50;4.20;;;3.45;;
26588;SDS011;14235;48.532;8.722;2023-05-17T14:06:16;6.95;;;3.72;;
26588;SDS011;14235;48.532;8.722;2023-05-17T14:08:42;4.63;;;3.35;;
26588;SDS011;14235;48.532;8.722;2023-05-17T14:11:08;4.20;;;3.25;;
26588;SDS011;14235;48.532;8.722;2023-05-17T14:13:34;3.63;;;3.25;;
26588;SDS011;14235;48.532;8.722;2023-05-17T14:15:59;5.53;;;3.20;;
26588;SDS011;14235;48.532;8.722;2023-05-17T14:18:25;4.68;;;3.20;;
26588;SDS011;14235;48.532;8.722;2023-05-17T14:20:50;4.60;;;3.38;;
26588;SDS011;14235;48.532;8.722;2023-05-17T14:23:17;6.30;;;3.92;;
26588;SDS011;14235;48.532;8.722;2023-05-17T14:25:42;5.47;;;3.95;;
26588;SDS011;14235;48.532;8.722;2023-05-17T14:28:08;4.32;;;3.53;;
26588;SDS011;14235;48.532;8.722;2023-05-17T14:30:36;7.03;;;3.38;;
26588;SDS011;14235;48.532;8.722;2023-05-17T14:33:01;4.80;;;3.45;;
26588;SDS011;14235;48.532;8.722;2023-05-17T14:35:27;4.20;;;3.00;;
26588;SDS011;14235;48.532;8.722;2023-05-17T14:37:54;6.57;;;3.67;;
26588;SDS011;14235;48.532;8.722;2023-05-17T14:40:20;4.13;;;3.60;;
26588;SDS011;14235;48.532;8.722;2023-05-17T14:42:46;5.03;;;3.22;;
26588;SDS011;14235;48.532;8.722;2023-05-17T14:45:11;5.30;;;3.90;;
26588;SDS011;14235;48.532;8.722;2023-05-17T14:47:37;4.20;;;3.58;;
26588;SDS011;14235;48.532;8.722;2023-05-17T14:50:03;3.97;;;3.33;;
26588;SDS011;14235;48.532;8.722;2023-05-17T14:52:29;4.55;;;2.95;;
26588;SDS011;14235;48.532;8.722;2023-05-17T14:54:54;4.90;;;3.40;;
26588;SDS011;14235;48.532;8.722;2023-05-17T14:57:20;6.95;;;3.63;;
26588;SDS011;14235;48.532;8.722;2023-05-17T14:59:46;3.15;;;2.85;;
26588;SDS011;14235;48.532;8.722;2023-05-17T15:02:12;4.35;;;2.92;;
26588;SDS011;14235;48.532;8.722;2023-05-17T15:04:37;4.38;;;3.22;;
26588;SDS011;14235;48.532;8.722;2023-05-17T15:07:03;5.63;;;2.97;;
26588;SDS011;14235;48.532;8.722;2023-05-17T15:09:29;5.38;;;3.72;;
26588;SDS011;14235;48.532;8.722;2023-05-17T15:11:55;7.55;;;4.25;;
26588;SDS011;14235;48.532;8.722;2023-05-17T15:14:21;5.50;;;3.65;;
26588;SDS011;14235;48.532;8.722;2023-05-17T15:16:48;5.00;;;3.45;;